메인 페이지
METAR-TAF:

METAR-TAF

공항 :

Puerto Maldonado, 페루

위도: 12-38S, 경도: 069-12W, 고도: 265m

현재 날씨관측

예보는 1 시간 42분 전, 23:00시(UTC)에 발표되었습니다.
서북서2kt
온도 28°C
습도 79%
기압 1010 hPa
시정 10km 이상
고도 3000ft 상공 구름 조금
고도 8000ft 상공 구름 많음

METAR: SPTU 252300Z 30002KT 9999 FEW030 BKN080 28/24 Q1010 RMK PP000

시각: 19:42 (00:42 UTC)

예보

예보는 7 시간 42분 전, 17:00시(UTC)에 발표되었습니다.
예보 대상 시간: 25일 18시부터 26일 18시까지 (UTC)
서남서10kt
시정 10km 이상
고도 3000ft 상공 구름 보통
고도 9000ft 상공 구름 많음

TAF: SPTU 251700Z 2518/2618 24010KT 9999 SCT030 BKN090 TX30/2520Z TN23/2611Z

4,000개 이상의 공항 관측 자료 및 예보 (METAR 및 TAF 보고).

지도상에서 검색 가능한 기상관측소가 노란 점과 빨간 점으로 표시되어 있습니다.

기상관측소 명을 보려면 표시 위로 마우스를 이동하세요.

날씨 관측과 예보를 보려면 클릭하세요.

지도 변경 : 확대하려면 엑스 표시가 있는 녹색 버튼, 축소하려면 빼기 표시가 있는 녹색 버튼, 다음 페이지의 지도를 보려면 녹색 화살표를 클릭하세요.


METAR-TAF: